الكل
Swanbourne Airport YSNE حالة الطقس
There is no TAF data available at YSNE. Showing TAF data for YPJT (11 mi جنوبي شرقي).
توقع منطقة محطة المطار JAD (لا توجد بيانات لـYSNE)
| Here is the undecoded forecast: 2026/05/08 11:12 YPJT 081112Z 0812/0906 06012KT 9999 FU NSC RMK FM081400 MOD TURB BLW 3000FT TL082200 T 17 15 14 12 Q 1027 1027 1027 1027 |
There is no METAR data available at YSNE. Showing METAR data for YPJT (11 mi جنوبي شرقي).
محفوظات أحدث تقرير روتيني عن حالة الطقس من أجل الطيران (الميتار) JAD ( لا توجد بيانات لـYSNE)
| Date | Time (AWST) | Flight Rules | Wind Dir. | Speed | Type | Height AGL (ft) | Visibility | Temp (°C) | Temp (°F) | Dew Point (°C) | Dew Point (°F) | Rel. Humid. | Pressure | Density Altitude | Remarks |
|---|---|---|---|---|---|---|---|---|---|---|---|---|---|---|---|
| 08-ماي | 20:30 | VFR | 80° | 9 kt | 10000 meters | 17° | 62° | 6° | 42° | 48% | 1026 mb | -39 ft | |||
| 08-ماي | 20:00 | VFR | 80° | 8 kt | 10000 meters | 17° | 62° | 6° | 42° | 48% | 1026 mb | -39 ft | |||
| 08-ماي | 19:30 | VFR | 80° | 8 kt | 10000 meters | 18° | 64° | 6° | 42° | 45% | 1026 mb | 81 ft | |||
| 08-ماي | 19:00 | VFR | 70° | 8 kt | 10000 meters | 19° | 66° | 6° | 42° | 43% | 1026 mb | 201 ft | |||
| 08-ماي | 18:30 | VFR | 80° | 9 kt | 10000 meters | 19° | 66° | 7° | 44° | 46% | 1026 mb | 201 ft | |||
| 08-ماي | 18:00 | VFR | 100° | 5 kt | 10000 meters | 19° | 66° | 7° | 44° | 46% | 1026 mb | 201 ft | |||
| 08-ماي | 17:30 | VFR | 90° | 6 kt | 10000 meters | 20° | 68° | 7° | 44° | 43% | 1026 mb | 321 ft | |||
| 08-ماي | 17:00 | VFR | 70° | 11 kt | 10000 meters | 22° | 71° | 7° | 44° | 38% | 1025 mb | 591 ft | |||
| 08-ماي | 16:30 | VFR | 90° | 12 kt | 10000 meters | 22° | 71° | 7° | 44° | 38% | 1025 mb | 591 ft | Wind gusting to 23 KT | ||
| 08-ماي | 16:00 | VFR | 80° | 13 kt | 10000 meters | 23° | 73° | 7° | 44° | 36% | 1025 mb | 711 ft | |||
| 08-ماي | 15:30 | VFR | 60° | 13 kt | 10000 meters | 23° | 73° | 8° | 46° | 38% | 1025 mb | 711 ft | |||
| 08-ماي | 15:00 | VFR | 70° | 14 kt | 10000 meters | 23° | 73° | 7° | 44° | 36% | 1025 mb | 711 ft | |||
| 08-ماي | 14:30 | VFR | 60° | 13 kt | 10000 meters | 23° | 73° | 8° | 46° | 38% | 1026 mb | 681 ft | |||
| 08-ماي | 14:00 | VFR | 80° | 13 kt | 10000 meters | 23° | 73° | 8° | 46° | 38% | 1026 mb | 681 ft | |||
| 08-ماي | 13:30 | VFR | 80° | 11 kt | 10000 meters | 23° | 73° | 9° | 48° | 41% | 1026 mb | 681 ft | |||
| 08-ماي | 13:00 | VFR | 80° | 11 kt | 10000 meters | 22° | 71° | 10° | 50° | 46% | 1027 mb | 532 ft | |||
| 08-ماي | 12:30 | VFR | 90° | 16 kt | 10000 meters | 22° | 71° | 10° | 50° | 46% | 1027 mb | 532 ft | |||
| 08-ماي | 12:00 | VFR | 40° | 14 kt | 10000 meters | 22° | 71° | 10° | 50° | 46% | 1028 mb | 502 ft | |||
| 08-ماي | 11:30 | VFR | 70° | 13 kt | 10000 meters | 21° | 69° | 10° | 50° | 49% | 1028 mb | 382 ft | |||
| 08-ماي | 11:00 | VFR | 60° | 15 kt | 10000 meters | 20° | 68° | 10° | 50° | 53% | 1029 mb | 233 ft | |||
| 08-ماي | 10:30 | VFR | 50° | 15 kt | 10000 meters | 20° | 68° | 9° | 48° | 49% | 1029 mb | 233 ft | |||
| 08-ماي | 10:00 | VFR | 60° | 12 kt | 10000 meters | 19° | 66° | 9° | 48° | 52% | 1029 mb | 113 ft | |||
| 08-ماي | 09:30 | VFR | 60° | 9 kt | 10000 meters | 18° | 64° | 9° | 48° | 56% | 1030 mb | -37 ft | |||
| 08-ماي | 09:00 | VFR | 70° | 8 kt | 10000 meters | 17° | 62° | 9° | 48° | 59% | 1030 mb | -157 ft |
تسجيل الدخول
| مُتصفحك غير مُدعَّم. قم بترقية متصفحك |
